createdAt,value
2019-01-10T00:00:26.879Z,82.55
2019-01-10T00:00:58.050Z,87.08
2019-01-10T00:01:29.221Z,85.92
2019-01-10T00:02:00.396Z,82.88
2019-01-10T00:02:31.578Z,82.75
2019-01-10T00:03:02.751Z,81.75
2019-01-10T00:03:33.920Z,80.47
2019-01-10T00:04:05.143Z,85.72
2019-01-10T00:04:36.341Z,79.77
2019-01-10T00:05:07.508Z,78.02
2019-01-10T00:05:38.672Z,84.90
2019-01-10T00:06:09.876Z,82.53
2019-01-10T00:06:41.043Z,82.95
2019-01-10T00:07:12.217Z,80.65
2019-01-10T00:07:43.406Z,84.05
2019-01-10T00:08:14.600Z,76.80
2019-01-10T00:08:45.787Z,82.37
2019-01-10T00:09:16.961Z,75.85
2019-01-10T00:09:48.115Z,82.57
2019-01-10T00:10:19.353Z,87.33
2019-01-10T00:10:50.549Z,86.05
2019-01-10T00:11:21.721Z,87.72
2019-01-10T00:11:52.916Z,76.62
2019-01-10T00:12:24.110Z,77.70
2019-01-10T00:12:55.284Z,83.12
2019-01-10T00:13:26.456Z,79.55
2019-01-10T00:13:57.643Z,76.05
2019-01-10T00:14:28.835Z,82.42
2019-01-10T00:15:00.012Z,78.67
2019-01-10T00:15:31.273Z,81.92
2019-01-10T00:16:02.491Z,77.37
2019-01-10T00:16:33.669Z,80.28
2019-01-10T00:17:04.852Z,74.40
2019-01-10T00:17:36.092Z,81.00
2019-01-10T00:18:07.271Z,81.22
2019-01-10T00:18:38.446Z,76.65
2019-01-10T00:19:09.627Z,88.40
2019-01-10T00:19:40.792Z,77.03
2019-01-10T00:20:11.960Z,76.57
2019-01-10T00:20:43.202Z,75.52
2019-01-10T00:21:14.423Z,77.40
2019-01-10T00:21:45.594Z,81.20
2019-01-10T00:22:16.760Z,80.62
2019-01-10T00:22:47.920Z,81.55
2019-01-10T00:23:19.092Z,83.78
2019-01-10T00:23:50.275Z,71.22
2019-01-10T00:24:21.448Z,84.97
2019-01-10T00:24:52.621Z,77.37
2019-01-10T00:25:23.838Z,78.75
2019-01-10T00:25:55.011Z,75.40
2019-01-10T00:26:26.184Z,76.77
2019-01-10T00:26:57.352Z,75.15
2019-01-10T00:27:28.528Z,80.22
2019-01-10T00:27:59.697Z,67.85
2019-01-10T00:28:30.884Z,72.20
2019-01-10T00:29:02.047Z,80.30
2019-01-10T00:29:33.229Z,74.30
2019-01-10T00:30:04.407Z,76.40
2019-01-10T00:30:35.571Z,72.97
2019-01-10T00:31:06.755Z,75.65
2019-01-10T00:31:37.971Z,72.03
2019-01-10T00:32:09.142Z,78.70
2019-01-10T00:32:40.316Z,80.05
2019-01-10T00:33:11.493Z,81.12
2019-01-10T00:33:42.659Z,76.47
2019-01-10T00:34:13.829Z,77.45
2019-01-10T00:34:45.012Z,77.47
2019-01-10T00:35:16.173Z,74.42
2019-01-10T00:35:47.334Z,74.17
2019-01-10T00:36:18.550Z,71.65
2019-01-10T00:36:49.730Z,76.75
2019-01-10T00:37:20.917Z,79.12
2019-01-10T00:37:52.095Z,79.53
2019-01-10T00:38:23.263Z,80.92
2019-01-10T00:38:54.440Z,82.30
2019-01-10T00:39:25.606Z,78.35
2019-01-10T00:39:56.859Z,78.95
2019-01-10T00:40:28.057Z,74.97
2019-01-10T00:40:59.259Z,68.87
2019-01-10T00:41:30.480Z,71.90
2019-01-10T00:42:01.646Z,80.90
2019-01-10T00:42:32.838Z,74.42
2019-01-10T00:43:04.011Z,79.17
2019-01-10T00:43:35.225Z,77.00
2019-01-10T00:44:06.440Z,73.97
2019-01-10T00:44:37.614Z,76.90
2019-01-10T00:45:08.810Z,80.45
2019-01-10T00:45:39.974Z,81.85
2019-01-10T00:46:11.139Z,82.90
2019-01-10T00:46:42.310Z,79.20
2019-01-10T00:47:13.476Z,77.10
2019-01-10T00:47:44.656Z,76.20
2019-01-10T00:48:15.874Z,74.20
2019-01-10T00:48:47.035Z,76.15
2019-01-10T00:49:18.217Z,76.85
2019-01-10T00:49:49.380Z,75.90
2019-01-10T00:50:20.563Z,71.10
2019-01-10T00:50:51.731Z,69.65
2019-01-10T00:51:22.905Z,69.35
2019-01-10T00:51:54.075Z,73.57
2019-01-10T00:52:26.160Z,70.22
2019-01-10T00:52:57.339Z,76.50
2019-01-10T00:53:28.534Z,73.45
2019-01-10T00:53:59.759Z,70.83
2019-01-10T00:54:30.947Z,73.07
2019-01-10T00:55:02.122Z,69.15
2019-01-10T00:55:33.296Z,68.85
2019-01-10T00:56:04.653Z,71.75
2019-01-10T00:56:35.826Z,69.03
2019-01-10T00:57:06.998Z,68.87
2019-01-10T00:57:38.166Z,71.77
2019-01-10T00:58:09.330Z,69.45
2019-01-10T00:58:40.540Z,67.40
2019-01-10T00:59:11.729Z,63.23
2019-01-10T00:59:42.943Z,73.07
2019-01-10T01:00:14.132Z,67.55
2019-01-10T01:00:45.308Z,69.90
2019-01-10T01:01:16.534Z,68.02
2019-01-10T01:01:47.714Z,67.47
2019-01-10T01:02:18.876Z,69.62
2019-01-10T01:02:50.038Z,72.35
2019-01-10T01:03:21.220Z,68.52
2019-01-10T01:03:52.402Z,70.78
2019-01-10T01:04:23.619Z,68.17
2019-01-10T01:04:54.811Z,65.97
2019-01-10T01:05:25.985Z,66.62
2019-01-10T01:05:57.171Z,72.20
2019-01-10T01:06:28.376Z,71.72
2019-01-10T01:06:59.563Z,64.60
2019-01-10T01:07:30.735Z,66.10
2019-01-10T01:08:02.390Z,66.55
2019-01-10T01:08:33.558Z,64.35
2019-01-10T01:09:04.724Z,65.25
2019-01-10T01:09:35.902Z,65.47
2019-01-10T01:10:07.067Z,64.50
2019-01-10T01:10:38.243Z,67.32
2019-01-10T01:11:09.450Z,69.55
2019-01-10T01:11:40.707Z,62.78
2019-01-10T01:12:11.884Z,66.67
2019-01-10T01:12:43.046Z,60.03
2019-01-10T01:13:14.223Z,72.12
2019-01-10T01:13:45.481Z,63.48
2019-01-10T01:14:16.678Z,65.70
2019-01-10T01:14:47.875Z,64.47
2019-01-10T01:15:19.051Z,62.45
2019-01-10T01:15:50.228Z,59.35
2019-01-10T01:16:21.461Z,60.33
2019-01-10T01:16:52.635Z,66.50
2019-01-10T01:17:23.797Z,67.35
2019-01-10T01:17:54.980Z,65.60
2019-01-10T01:18:26.155Z,65.83
2019-01-10T01:18:57.340Z,65.10
2019-01-10T01:19:28.529Z,63.50
2019-01-10T01:19:59.706Z,60.98
2019-01-10T01:20:30.915Z,62.33
2019-01-10T01:21:02.099Z,65.35
2019-01-10T01:21:33.287Z,62.53
2019-01-10T01:22:04.503Z,62.60
2019-01-10T01:22:35.664Z,63.50
2019-01-10T01:23:06.822Z,63.08
2019-01-10T01:23:37.995Z,65.47
2019-01-10T01:24:09.210Z,61.60
2019-01-10T01:24:40.375Z,60.88
2019-01-10T01:25:11.603Z,61.73
2019-01-10T01:25:42.802Z,59.75
2019-01-10T01:26:13.957Z,60.45
2019-01-10T01:26:45.123Z,62.23
2019-01-10T01:27:16.287Z,61.88
2019-01-10T01:27:47.482Z,62.33
2019-01-10T01:28:18.707Z,57.83
2019-01-10T01:28:49.870Z,58.38
2019-01-10T01:29:21.033Z,58.65
2019-01-10T01:29:52.218Z,60.52
2019-01-10T01:30:23.374Z,60.65
2019-01-10T01:30:54.542Z,57.65
2019-01-10T01:31:25.700Z,58.05
2019-01-10T01:31:56.883Z,56.88
2019-01-10T01:32:28.111Z,57.67
2019-01-10T01:32:59.282Z,61.00
2019-01-10T01:33:30.497Z,60.35
2019-01-10T01:34:01.673Z,57.53
2019-01-10T01:34:32.897Z,60.12
2019-01-10T01:35:04.052Z,58.85
2019-01-10T01:35:35.209Z,55.23
2019-01-10T01:36:06.371Z,58.15
2019-01-10T01:36:37.548Z,57.67
2019-01-10T01:37:08.719Z,53.30
2019-01-10T01:37:39.886Z,53.15
2019-01-10T01:38:11.051Z,58.28
2019-01-10T01:38:42.241Z,61.73
2019-01-10T01:39:13.485Z,60.20
2019-01-10T01:39:44.640Z,57.00
2019-01-10T01:40:15.818Z,55.45
2019-01-10T01:40:46.987Z,57.38
2019-01-10T01:41:18.155Z,58.68
2019-01-10T01:41:49.352Z,55.78
2019-01-10T01:42:20.519Z,54.35
2019-01-10T01:42:51.745Z,57.90
2019-01-10T01:43:22.906Z,58.13
2019-01-10T01:43:54.088Z,56.40
2019-01-10T01:44:27.428Z,59.90
2019-01-10T01:45:00.781Z,59.98
2019-01-10T01:45:31.920Z,62.90
2019-01-10T01:46:03.095Z,57.05
2019-01-10T01:46:34.268Z,58.45
2019-01-10T01:47:05.496Z,56.88
2019-01-10T01:47:36.663Z,55.50
2019-01-10T01:48:07.894Z,53.40
2019-01-10T01:48:39.072Z,53.33
2019-01-10T01:49:10.248Z,57.95
2019-01-10T01:49:41.426Z,53.25
2019-01-10T01:50:12.604Z,55.03
2019-01-10T01:50:43.818Z,55.00
2019-01-10T01:51:14.992Z,47.75
2019-01-10T01:51:46.154Z,52.85
2019-01-10T01:52:17.332Z,54.27
2019-01-10T01:52:48.507Z,53.80
2019-01-10T01:53:19.708Z,55.33
2019-01-10T01:53:50.881Z,53.48
2019-01-10T01:54:22.070Z,54.05
2019-01-10T01:54:53.242Z,54.45
2019-01-10T01:55:24.431Z,53.98
2019-01-10T01:55:55.599Z,55.75
2019-01-10T01:56:26.777Z,52.38
2019-01-10T01:56:57.942Z,55.50
2019-01-10T01:57:29.101Z,54.27
2019-01-10T01:58:00.276Z,57.50
2019-01-10T01:58:32.478Z,55.88
2019-01-10T01:59:03.627Z,52.45
2019-01-10T01:59:34.806Z,51.33
2019-01-10T02:00:05.977Z,54.30
2019-01-10T02:00:37.152Z,52.55
2019-01-10T02:01:08.338Z,49.25
2019-01-10T02:01:39.505Z,53.55
2019-01-10T02:02:10.673Z,51.18
2019-01-10T02:02:41.852Z,49.98
2019-01-10T02:03:13.068Z,52.85
2019-01-10T02:03:44.237Z,49.30
2019-01-10T02:04:15.409Z,52.48
2019-01-10T02:04:46.566Z,56.00
2019-01-10T02:05:17.731Z,52.25
2019-01-10T02:05:48.889Z,52.75
2019-01-10T02:06:20.081Z,50.33
2019-01-10T02:06:51.258Z,51.40
2019-01-10T02:07:22.418Z,49.38
2019-01-10T02:07:53.649Z,50.38
2019-01-10T02:08:24.822Z,52.93
2019-01-10T02:08:57.835Z,54.65
2019-01-10T02:09:29.062Z,51.63
2019-01-10T02:10:00.358Z,49.27
2019-01-10T02:10:31.490Z,53.17
2019-01-10T02:11:02.671Z,50.52
2019-01-10T02:11:33.823Z,53.98
2019-01-10T02:12:05.028Z,50.17
2019-01-10T02:12:36.201Z,48.50
2019-01-10T02:13:16.270Z,52.65
2019-01-10T02:13:40.287Z,49.15
2019-01-10T02:14:11.471Z,44.93
2019-01-10T02:14:42.643Z,46.05
2019-01-10T02:15:14.357Z,46.18
2019-01-10T02:15:45.672Z,44.98
2019-01-10T02:16:16.884Z,46.35
2019-01-10T02:16:48.025Z,47.88
2019-01-10T02:17:19.209Z,48.48
2019-01-10T02:17:50.380Z,46.13
2019-01-10T02:18:21.545Z,44.27
2019-01-10T02:18:52.767Z,45.08
2019-01-10T02:19:23.961Z,47.50
2019-01-10T02:19:55.129Z,44.10
2019-01-10T02:20:26.301Z,42.05
2019-01-10T02:20:57.475Z,47.17
2019-01-10T02:21:28.646Z,47.17
2019-01-10T02:21:59.815Z,43.63
2019-01-10T02:22:30.985Z,45.17
2019-01-10T02:23:02.198Z,42.90
2019-01-10T02:23:33.358Z,41.25
2019-01-10T02:24:04.544Z,44.27
2019-01-10T02:24:35.729Z,41.75
2019-01-10T02:25:06.915Z,40.63
2019-01-10T02:25:38.128Z,43.05
2019-01-10T02:26:09.293Z,42.53
2019-01-10T02:26:40.476Z,42.00
2019-01-10T02:27:11.640Z,37.78
2019-01-10T02:27:42.805Z,41.42
2019-01-10T02:28:13.966Z,38.67
2019-01-10T02:28:45.148Z,38.38
2019-01-10T02:29:16.329Z,38.95
2019-01-10T02:29:47.514Z,41.65
2019-01-10T02:30:18.685Z,40.63
2019-01-10T02:30:49.932Z,38.53
2019-01-10T02:31:21.142Z,43.13
2019-01-10T02:31:52.317Z,37.33
2019-01-10T02:32:23.480Z,42.03
2019-01-10T02:32:54.642Z,40.55
2019-01-10T02:33:25.801Z,41.02
2019-01-10T02:33:56.963Z,42.27
2019-01-10T02:34:28.142Z,37.15
2019-01-10T02:34:59.328Z,37.53
2019-01-10T02:35:30.485Z,40.25
2019-01-10T02:36:01.697Z,38.05
2019-01-10T02:36:32.879Z,38.08
2019-01-10T02:37:04.039Z,36.55
2019-01-10T02:37:35.209Z,39.48
2019-01-10T02:38:06.418Z,37.53
2019-01-10T02:38:37.579Z,36.63
2019-01-10T02:39:08.738Z,40.15
2019-01-10T02:39:39.904Z,39.65
2019-01-10T02:40:11.068Z,39.48
2019-01-10T02:40:42.276Z,39.10
2019-01-10T02:41:13.431Z,40.30
2019-01-10T02:41:44.591Z,37.40
2019-01-10T02:42:15.753Z,37.55
2019-01-10T02:42:46.924Z,37.53
2019-01-10T02:43:26.278Z,37.53
2019-01-10T02:43:51.333Z,37.30
2019-01-10T02:44:22.491Z,36.13
2019-01-10T02:44:53.656Z,36.48
2019-01-10T02:45:24.832Z,37.85
2019-01-10T02:45:55.987Z,40.55
2019-01-10T02:46:27.138Z,37.05
2019-01-10T02:46:58.300Z,35.30
2019-01-10T02:47:29.505Z,35.00
2019-01-10T02:48:00.675Z,34.95
2019-01-10T02:48:31.903Z,35.65
2019-01-10T02:49:03.085Z,35.52
2019-01-10T02:49:34.256Z,36.05
2019-01-10T02:50:05.413Z,34.83
2019-01-10T02:50:36.589Z,37.53
2019-01-10T02:51:07.764Z,35.40
2019-01-10T02:51:38.929Z,33.30
2019-01-10T02:52:10.184Z,37.05
2019-01-10T02:52:41.368Z,32.40
2019-01-10T02:53:12.548Z,35.43
2019-01-10T02:53:43.750Z,35.78
2019-01-10T02:54:14.918Z,35.33
2019-01-10T02:54:46.088Z,34.20
2019-01-10T02:55:17.268Z,39.13
2019-01-10T02:55:48.412Z,31.15
2019-01-10T02:56:19.584Z,28.80
2019-01-10T02:56:50.753Z,32.30
2019-01-10T02:57:21.922Z,32.78
2019-01-10T02:57:53.094Z,32.53
2019-01-10T02:58:24.249Z,31.40
2019-01-10T02:58:56.369Z,33.98
2019-01-10T02:59:27.528Z,30.80
2019-01-10T02:59:58.717Z,35.23
2019-01-10T03:00:31.508Z,32.13
2019-01-10T03:01:02.829Z,33.48
2019-01-10T03:01:34.010Z,31.45
2019-01-10T03:02:05.172Z,32.38
2019-01-10T03:02:36.340Z,29.12
2019-01-10T03:03:07.559Z,30.82
2019-01-10T03:03:38.715Z,29.72
2019-01-10T03:04:09.897Z,34.53
2019-01-10T03:04:41.040Z,29.87
2019-01-10T03:05:12.214Z,32.88
2019-01-10T03:05:43.379Z,32.00
2019-01-10T03:06:14.557Z,30.20
2019-01-10T03:06:45.712Z,33.75
2019-01-10T03:07:16.876Z,32.20
2019-01-10T03:07:50.363Z,31.80
2019-01-10T03:08:21.583Z,32.15
2019-01-10T03:08:52.760Z,29.95
2019-01-10T03:09:23.930Z,31.42
2019-01-10T03:09:55.085Z,32.03
2019-01-10T03:10:26.342Z,30.80
2019-01-10T03:10:57.501Z,27.85
2019-01-10T03:11:28.668Z,30.48
2019-01-10T03:11:59.996Z,31.87
2019-01-10T03:12:31.163Z,32.10
2019-01-10T03:13:02.359Z,29.98
2019-01-10T03:13:36.810Z,29.48
2019-01-10T03:14:06.496Z,30.02
2019-01-10T03:14:37.663Z,29.82
2019-01-10T03:15:08.833Z,29.57
2019-01-10T03:15:39.997Z,31.40
2019-01-10T03:16:11.155Z,29.02
2019-01-10T03:16:42.317Z,28.15
2019-01-10T03:17:13.501Z,31.68
2019-01-10T03:17:44.666Z,32.93
2019-01-10T03:18:15.885Z,29.70
2019-01-10T03:18:47.053Z,30.43
2019-01-10T03:19:18.229Z,27.85
2019-01-10T03:19:49.384Z,28.98
2019-01-10T03:20:20.566Z,29.05
2019-01-10T03:20:52.688Z,29.15
2019-01-10T03:21:23.994Z,28.70
2019-01-10T03:21:55.152Z,30.27
2019-01-10T03:22:26.311Z,28.83
2019-01-10T03:22:57.482Z,31.15
2019-01-10T03:23:28.686Z,27.75
2019-01-10T03:23:59.841Z,31.27
2019-01-10T03:24:31.010Z,28.45
2019-01-10T03:25:02.380Z,28.95
2019-01-10T03:25:33.525Z,27.82
2019-01-10T03:26:04.718Z,27.87
2019-01-10T03:26:35.889Z,33.50
2019-01-10T03:27:07.088Z,31.05
2019-01-10T03:27:38.247Z,28.80
2019-01-10T03:28:09.449Z,28.42
2019-01-10T03:28:40.605Z,27.02
2019-01-10T03:29:11.860Z,27.35
2019-01-10T03:29:43.041Z,24.37
2019-01-10T03:30:14.209Z,26.93
2019-01-10T03:30:45.361Z,27.25
2019-01-10T03:31:16.536Z,27.02
2019-01-10T03:31:47.769Z,28.42
2019-01-10T03:32:18.936Z,26.23
2019-01-10T03:32:50.104Z,29.02
2019-01-10T03:33:21.303Z,28.67
2019-01-10T03:33:52.526Z,28.35
2019-01-10T03:34:23.749Z,28.98
2019-01-10T03:34:54.956Z,27.87
2019-01-10T03:35:26.989Z,26.55
2019-01-10T03:35:58.251Z,29.95
2019-01-10T03:36:29.456Z,29.07
2019-01-10T03:37:00.656Z,26.07
2019-01-10T03:37:31.813Z,29.70
2019-01-10T03:38:02.990Z,25.77
2019-01-10T03:38:34.155Z,27.67
2019-01-10T03:39:05.316Z,27.30
2019-01-10T03:39:36.487Z,26.12
2019-01-10T03:40:07.665Z,28.70
2019-01-10T03:40:38.828Z,26.80
2019-01-10T03:41:10.007Z,27.85
2019-01-10T03:41:41.161Z,26.15
2019-01-10T03:42:12.409Z,26.97
2019-01-10T03:42:43.574Z,27.52
2019-01-10T03:43:16.469Z,27.40
2019-01-10T03:43:47.908Z,28.32
2019-01-10T03:44:19.107Z,26.70
2019-01-10T03:44:50.289Z,29.72
2019-01-10T03:45:21.449Z,28.15
2019-01-10T03:45:52.630Z,26.62
2019-01-10T03:46:23.791Z,28.55
2019-01-10T03:46:55.002Z,26.10
2019-01-10T03:47:26.180Z,27.60
2019-01-10T03:47:57.403Z,27.82
2019-01-10T03:48:28.557Z,27.98
2019-01-10T03:48:59.721Z,26.35
2019-01-10T03:49:30.894Z,27.82
2019-01-10T03:50:02.042Z,26.30
2019-01-10T03:50:33.204Z,26.45
2019-01-10T03:51:04.380Z,29.25
2019-01-10T03:51:35.555Z,29.40
2019-01-10T03:52:06.722Z,26.62
2019-01-10T03:52:37.878Z,27.37
2019-01-10T03:53:09.098Z,28.17
2019-01-10T03:53:40.269Z,27.25
2019-01-10T03:54:11.452Z,27.13
2019-01-10T03:54:42.621Z,27.35
2019-01-10T03:55:13.774Z,26.15
2019-01-10T03:55:44.939Z,28.30
2019-01-10T03:56:16.098Z,26.73
2019-01-10T03:56:47.256Z,29.67
2019-01-10T03:57:18.432Z,27.13
2019-01-10T03:57:49.601Z,25.50
2019-01-10T03:58:20.840Z,29.67
2019-01-10T03:58:52.033Z,25.37
2019-01-10T03:59:23.187Z,26.75
2019-01-10T03:59:54.383Z,25.35
2019-01-10T04:00:25.592Z,27.27
2019-01-10T04:00:56.801Z,28.12
2019-01-10T04:01:27.964Z,23.75
2019-01-10T04:01:59.142Z,26.33
2019-01-10T04:02:30.317Z,25.08
2019-01-10T04:03:01.484Z,26.73
2019-01-10T04:03:32.654Z,28.00
2019-01-10T04:04:03.858Z,27.32
2019-01-10T04:04:35.015Z,26.12
2019-01-10T04:05:06.173Z,27.40
2019-01-10T04:05:37.351Z,28.87
2019-01-10T04:06:08.507Z,25.88
2019-01-10T04:06:39.844Z,22.82
2019-01-10T04:07:11.070Z,27.90
2019-01-10T04:07:42.239Z,25.27
2019-01-10T04:08:13.403Z,25.70
2019-01-10T04:08:44.566Z,26.45
2019-01-10T04:09:15.736Z,26.87
2019-01-10T04:09:46.906Z,26.65
2019-01-10T04:10:18.073Z,27.62
2019-01-10T04:10:50.340Z,26.73
2019-01-10T04:11:21.491Z,28.87
2019-01-10T04:11:52.655Z,25.55
2019-01-10T04:12:23.869Z,26.65
2019-01-10T04:12:55.046Z,25.52
2019-01-10T04:13:26.241Z,23.87
2019-01-10T04:13:57.819Z,26.27
2019-01-10T04:14:29.035Z,24.12
2019-01-10T04:15:00.333Z,25.50
2019-01-10T04:15:31.436Z,27.42
2019-01-10T04:16:02.600Z,26.10
2019-01-10T04:16:33.759Z,26.85
2019-01-10T04:17:04.939Z,25.02
2019-01-10T04:17:36.161Z,27.25
2019-01-10T04:18:07.314Z,25.00
2019-01-10T04:18:38.479Z,24.82
2019-01-10T04:19:09.629Z,25.82
2019-01-10T04:19:40.801Z,27.27
2019-01-10T04:20:11.954Z,23.60
2019-01-10T04:20:43.127Z,25.52
2019-01-10T04:21:17.539Z,25.92
2019-01-10T04:21:47.202Z,26.05
2019-01-10T04:22:18.418Z,24.43
2019-01-10T04:22:49.584Z,24.90
2019-01-10T04:23:20.752Z,24.98
2019-01-10T04:23:51.908Z,24.30
2019-01-10T04:24:23.071Z,26.30
2019-01-10T04:24:54.258Z,25.43
2019-01-10T04:25:25.427Z,23.98
2019-01-10T04:25:56.587Z,25.43
2019-01-10T04:26:27.748Z,27.98
2019-01-10T04:26:58.973Z,28.62
2019-01-10T04:27:30.140Z,26.27
2019-01-10T04:28:01.355Z,29.92
2019-01-10T04:28:32.521Z,30.43
2019-01-10T04:29:03.684Z,26.20
2019-01-10T04:29:34.846Z,27.65
2019-01-10T04:30:06.029Z,29.42
2019-01-10T04:30:37.192Z,30.17
2019-01-10T04:31:08.352Z,27.75
2019-01-10T04:31:39.518Z,28.17
2019-01-10T04:32:10.705Z,31.33
2019-01-10T04:32:41.881Z,28.15
2019-01-10T04:33:13.094Z,28.98
2019-01-10T04:33:44.251Z,28.57
2019-01-10T04:34:15.415Z,29.15
2019-01-10T04:34:46.574Z,30.80
2019-01-10T04:35:17.733Z,29.87
2019-01-10T04:35:48.905Z,32.95
2019-01-10T04:36:20.062Z,31.35
2019-01-10T04:36:51.251Z,30.65
2019-01-10T04:37:22.425Z,33.63
2019-01-10T04:37:53.588Z,32.53
2019-01-10T04:38:24.805Z,35.68
2019-01-10T04:38:55.973Z,34.10
2019-01-10T04:39:27.152Z,32.03
2019-01-10T04:39:58.332Z,36.17
2019-01-10T04:40:29.496Z,34.55
2019-01-10T04:41:00.672Z,34.10
2019-01-10T04:41:31.847Z,33.20
2019-01-10T04:42:03.052Z,33.65
2019-01-10T04:42:34.219Z,32.70
2019-01-10T04:43:05.427Z,33.08
2019-01-10T04:43:36.619Z,34.73
2019-01-10T04:44:07.774Z,33.90
2019-01-10T04:44:38.934Z,34.05
2019-01-10T04:45:10.100Z,32.70
2019-01-10T04:45:41.262Z,31.05
2019-01-10T04:46:12.474Z,31.05
2019-01-10T04:46:43.639Z,29.07
2019-01-10T04:47:14.796Z,29.98
2019-01-10T04:47:45.970Z,32.05
2019-01-10T04:48:18.209Z,31.73
2019-01-10T04:48:49.373Z,32.20
2019-01-10T04:49:20.529Z,31.65
2019-01-10T04:49:51.708Z,34.08
2019-01-10T04:50:22.866Z,34.83
2019-01-10T04:50:54.019Z,33.92
2019-01-10T04:51:25.213Z,40.10
2019-01-10T04:51:56.380Z,37.10
2019-01-10T04:52:27.545Z,39.90
2019-01-10T04:52:58.713Z,37.55
2019-01-10T04:53:29.960Z,42.05
2019-01-10T04:54:01.124Z,37.28
2019-01-10T04:54:32.312Z,37.28
2019-01-10T04:55:03.469Z,41.30
2019-01-10T04:55:34.637Z,37.95
2019-01-10T04:56:05.802Z,36.73
2019-01-10T04:56:37.000Z,39.25
2019-01-10T04:57:08.145Z,34.80
2019-01-10T04:57:39.300Z,37.38
2019-01-10T04:58:10.443Z,36.90
2019-01-10T04:58:41.670Z,35.75
2019-01-10T04:59:12.831Z,36.70
2019-01-10T04:59:44.002Z,37.45
2019-01-10T05:00:15.175Z,38.45
2019-01-10T05:00:46.337Z,38.02
2019-01-10T05:01:17.485Z,36.53
2019-01-10T05:01:48.698Z,39.58
2019-01-10T05:02:19.826Z,40.92
2019-01-10T05:02:50.986Z,39.13
2019-01-10T05:03:22.171Z,35.90
2019-01-10T05:03:53.381Z,37.55
2019-01-10T05:04:24.539Z,37.95
2019-01-10T05:04:55.713Z,39.60
2019-01-10T05:05:26.883Z,38.90
2019-01-10T05:05:58.042Z,38.50
2019-01-10T05:06:29.210Z,37.65
2019-01-10T05:07:00.369Z,39.30
2019-01-10T05:07:31.524Z,41.35
2019-01-10T05:08:02.693Z,39.75
2019-01-10T05:08:33.919Z,38.80
2019-01-10T05:09:05.083Z,36.65
2019-01-10T05:09:36.264Z,38.70
2019-01-10T05:10:07.430Z,37.13
2019-01-10T05:10:38.590Z,34.58
2019-01-10T05:11:11.331Z,35.30
2019-01-10T05:11:42.686Z,37.53
2019-01-10T05:12:13.858Z,35.40
2019-01-10T05:12:45.020Z,34.70
2019-01-10T05:13:16.231Z,33.88
2019-01-10T05:13:47.399Z,33.45
2019-01-10T05:14:18.584Z,33.85
2019-01-10T05:14:49.754Z,37.03
2019-01-10T05:15:20.917Z,34.45
2019-01-10T05:15:52.084Z,33.92
2019-01-10T05:16:23.296Z,36.60
2019-01-10T05:16:54.479Z,36.30
2019-01-10T05:17:25.655Z,33.85
2019-01-10T05:17:56.827Z,35.08
2019-01-10T05:18:27.986Z,32.67
2019-01-10T05:18:59.150Z,33.70
2019-01-10T05:19:30.324Z,33.67
2019-01-10T05:20:01.482Z,38.23
2019-01-10T05:20:32.675Z,37.30
2019-01-10T05:21:03.852Z,36.23
2019-01-10T05:21:35.058Z,37.13
2019-01-10T05:22:06.288Z,35.90
2019-01-10T05:22:37.451Z,36.80
2019-01-10T05:23:08.616Z,40.20
2019-01-10T05:23:39.784Z,38.02
2019-01-10T05:24:11.777Z,34.30
2019-01-10T05:24:42.923Z,36.23
2019-01-10T05:25:14.080Z,38.25
2019-01-10T05:25:45.256Z,39.70
2019-01-10T05:26:16.437Z,37.53
2019-01-10T05:26:47.595Z,41.02
2019-01-10T05:27:18.757Z,37.65
2019-01-10T05:27:49.932Z,29.35
2019-01-10T05:28:21.104Z,25.12
2019-01-10T05:28:52.303Z,35.45
2019-01-10T05:29:23.479Z,28.65
2019-01-10T05:29:54.632Z,34.30
2019-01-10T05:30:25.850Z,32.10
2019-01-10T05:30:57.020Z,30.17
2019-01-10T05:31:28.210Z,30.62
2019-01-10T05:31:59.371Z,31.48
2019-01-10T05:32:30.540Z,32.48
2019-01-10T05:33:01.765Z,32.80
2019-01-10T05:33:32.923Z,33.55
2019-01-10T05:34:04.098Z,37.85
2019-01-10T05:34:35.282Z,35.25
2019-01-10T05:35:06.457Z,34.58
2019-01-10T05:35:37.621Z,35.85
2019-01-10T05:36:08.785Z,35.75
2019-01-10T05:36:39.948Z,36.28
2019-01-10T05:37:11.100Z,36.00
2019-01-10T05:37:42.270Z,36.63
2019-01-10T05:38:13.528Z,38.23
2019-01-10T05:38:44.664Z,41.18
2019-01-10T05:39:16.115Z,37.25
2019-01-10T05:39:47.964Z,40.88
2019-01-10T05:40:20.174Z,41.45
2019-01-10T05:40:51.355Z,40.73
2019-01-10T05:41:22.530Z,38.75
2019-01-10T05:41:53.703Z,40.80
2019-01-10T05:42:24.858Z,38.83
2019-01-10T05:42:56.028Z,38.53
2019-01-10T05:43:27.196Z,38.88
2019-01-10T05:43:58.418Z,39.05
2019-01-10T05:44:29.596Z,38.35
2019-01-10T05:45:00.782Z,36.63
2019-01-10T05:45:31.954Z,38.98
2019-01-10T05:46:03.107Z,40.75
2019-01-10T05:46:34.300Z,37.60
2019-01-10T05:47:05.481Z,36.58
2019-01-10T05:47:36.649Z,40.58
2019-01-10T05:48:07.814Z,38.35
2019-01-10T05:48:38.970Z,40.10
2019-01-10T05:49:10.185Z,34.53
2019-01-10T05:49:41.346Z,35.83
2019-01-10T05:50:12.513Z,39.58
2019-01-10T05:50:43.944Z,39.03
2019-01-10T05:51:15.143Z,39.05
2019-01-10T05:51:46.312Z,39.00
2019-01-10T05:52:17.515Z,37.73
2019-01-10T05:52:48.690Z,38.40
2019-01-10T05:53:19.841Z,39.88
2019-01-10T05:53:51.006Z,39.75
2019-01-10T05:54:22.189Z,38.67
2019-01-10T05:54:53.344Z,40.80
2019-01-10T05:55:24.538Z,37.20
2019-01-10T05:55:55.731Z,37.63
2019-01-10T05:56:26.942Z,38.00
2019-01-10T05:56:58.186Z,37.75
2019-01-10T05:57:29.339Z,39.35
2019-01-10T05:58:00.511Z,37.95
2019-01-10T05:58:31.679Z,36.65
2019-01-10T05:59:02.839Z,38.58
2019-01-10T05:59:34.012Z,37.42
2019-01-10T06:00:05.161Z,39.55
2019-01-10T06:00:36.371Z,39.60
2019-01-10T06:01:07.602Z,37.78
2019-01-10T06:01:38.793Z,35.80
2019-01-10T06:02:09.960Z,37.25
2019-01-10T06:02:41.122Z,35.85
2019-01-10T06:03:12.344Z,38.40
2019-01-10T06:03:43.508Z,37.80
2019-01-10T06:04:14.668Z,39.75
2019-01-10T06:04:45.831Z,35.70
2019-01-10T06:05:17.010Z,40.50
2019-01-10T06:05:48.269Z,37.67
2019-01-10T06:06:19.419Z,38.88
2019-01-10T06:06:50.685Z,36.55
2019-01-10T06:07:21.845Z,39.60
2019-01-10T06:07:53.008Z,39.48
2019-01-10T06:08:24.175Z,38.63
2019-01-10T06:08:55.381Z,41.50
2019-01-10T06:09:26.560Z,37.93
2019-01-10T06:09:57.738Z,38.90
2019-01-10T06:10:28.902Z,42.88
2019-01-10T06:11:00.067Z,39.18
2019-01-10T06:11:31.234Z,40.08
2019-01-10T06:12:02.397Z,37.93
2019-01-10T06:12:33.570Z,37.53
2019-01-10T06:13:04.735Z,38.92
2019-01-10T06:13:35.911Z,37.35
2019-01-10T06:14:07.077Z,38.10
2019-01-10T06:14:38.263Z,37.00
2019-01-10T06:15:09.426Z,40.65
2019-01-10T06:15:40.586Z,40.63
2019-01-10T06:16:11.758Z,39.65
2019-01-10T06:16:45.135Z,41.33
2019-01-10T06:17:15.892Z,39.70
2019-01-10T06:17:47.044Z,39.67
2019-01-10T06:18:18.250Z,38.35
2019-01-10T06:18:49.442Z,38.83
2019-01-10T06:19:26.809Z,37.65
2019-01-10T06:19:53.478Z,37.90
2019-01-10T06:20:24.639Z,38.05
2019-01-10T06:20:56.184Z,36.53
2019-01-10T06:21:27.374Z,37.80
2019-01-10T06:21:58.535Z,38.20
2019-01-10T06:22:29.701Z,39.27
2019-01-10T06:23:00.872Z,37.20
2019-01-10T06:23:32.112Z,39.73
2019-01-10T06:24:03.302Z,38.50
2019-01-10T06:24:34.460Z,39.55
2019-01-10T06:25:05.644Z,40.50
2019-01-10T06:25:36.813Z,37.17
2019-01-10T06:26:07.997Z,41.28
2019-01-10T06:26:39.209Z,40.17
2019-01-10T06:27:10.370Z,44.05
2019-01-10T06:27:41.553Z,38.25
2019-01-10T06:28:12.713Z,29.32
2019-01-10T06:28:45.314Z,30.50
2019-01-10T06:29:16.642Z,35.95
2019-01-10T06:29:47.811Z,32.50
2019-01-10T06:30:19.072Z,31.90
2019-01-10T06:30:50.229Z,35.92
2019-01-10T06:31:21.439Z,37.40
2019-01-10T06:31:52.599Z,40.80
2019-01-10T06:32:23.757Z,39.10
2019-01-10T06:32:54.920Z,41.18
2019-01-10T06:33:26.084Z,35.78
2019-01-10T06:33:57.294Z,36.45
2019-01-10T06:34:28.453Z,35.78
2019-01-10T06:34:59.644Z,36.45
2019-01-10T06:35:30.886Z,35.08
2019-01-10T06:36:02.062Z,39.60
2019-01-10T06:36:33.246Z,37.50
2019-01-10T06:37:04.415Z,37.48
2019-01-10T06:37:35.573Z,37.30
2019-01-10T06:38:06.738Z,40.38
2019-01-10T06:38:37.912Z,37.58
2019-01-10T06:39:09.076Z,37.30
2019-01-10T06:39:40.283Z,38.78
2019-01-10T06:40:11.451Z,39.27
2019-01-10T06:40:42.631Z,37.80
2019-01-10T06:41:13.799Z,38.48
2019-01-10T06:41:44.959Z,38.67
2019-01-10T06:42:16.167Z,37.70